createdAt,value
2019-01-21T00:00:37.158Z,318.66
2019-01-21T00:01:37.153Z,318.67
2019-01-21T00:02:37.121Z,318.78
2019-01-21T00:03:37.103Z,318.89
2019-01-21T00:04:37.096Z,318.57
2019-01-21T00:05:37.124Z,318.48
2019-01-21T00:06:37.079Z,318.70
2019-01-21T00:07:37.077Z,318.89
2019-01-21T00:08:37.058Z,318.48
2019-01-21T00:09:37.046Z,318.86
2019-01-21T00:10:37.046Z,318.68
2019-01-21T00:11:37.034Z,318.48
2019-01-21T00:12:37.001Z,318.73
2019-01-21T00:13:37.012Z,318.67
2019-01-21T00:14:37.012Z,318.26
2019-01-21T00:15:37.056Z,318.12
2019-01-21T00:16:36.967Z,318.21
2019-01-21T00:17:36.962Z,318.65
2019-01-21T00:18:36.954Z,318.27
2019-01-21T00:19:36.943Z,318.19
2019-01-21T00:20:36.954Z,318.37
2019-01-21T00:21:36.909Z,318.48
2019-01-21T00:22:36.894Z,318.41
2019-01-21T00:23:36.902Z,317.95
2019-01-21T00:24:36.878Z,318.47
2019-01-21T00:25:36.878Z,318.01
2019-01-21T00:26:36.897Z,318.00
2019-01-21T00:27:36.856Z,318.32
2019-01-21T00:28:36.850Z,318.74
2019-01-21T00:29:36.827Z,318.43
2019-01-21T00:30:36.816Z,318.63
2019-01-21T00:31:36.837Z,318.50
2019-01-21T00:32:36.810Z,318.34
2019-01-21T00:33:36.785Z,318.49
2019-01-21T00:34:36.781Z,317.77
2019-01-21T00:35:36.771Z,318.12
2019-01-21T00:36:36.782Z,318.20
2019-01-21T00:37:36.756Z,318.23
2019-01-21T00:38:36.758Z,317.94
2019-01-21T00:39:37.304Z,317.62
2019-01-21T00:40:36.725Z,317.86
2019-01-21T00:41:36.722Z,317.82
2019-01-21T00:42:36.696Z,317.74
2019-01-21T00:43:36.701Z,317.68
2019-01-21T00:44:36.672Z,317.59
2019-01-21T00:45:36.661Z,317.38
2019-01-21T00:46:36.657Z,317.10
2019-01-21T00:47:36.667Z,317.34
2019-01-21T00:48:36.627Z,316.82
2019-01-21T00:49:36.628Z,317.04
2019-01-21T00:50:36.613Z,317.08
2019-01-21T00:51:36.608Z,317.36
2019-01-21T00:52:36.599Z,317.32
2019-01-21T00:53:36.592Z,316.91
2019-01-21T00:54:36.597Z,317.00
2019-01-21T00:55:36.560Z,317.26
2019-01-21T00:56:36.541Z,316.90
2019-01-21T00:57:36.546Z,317.14
2019-01-21T00:58:36.560Z,316.86
2019-01-21T00:59:36.520Z,316.91
2019-01-21T01:00:36.507Z,316.73
2019-01-21T01:01:36.481Z,316.90
2019-01-21T01:02:36.471Z,316.66
2019-01-21T01:03:36.473Z,316.69
2019-01-21T01:04:36.525Z,316.99
2019-01-21T01:05:36.468Z,316.86
2019-01-21T01:06:36.434Z,316.65
2019-01-21T01:07:36.424Z,317.14
2019-01-21T01:08:36.428Z,316.25
2019-01-21T01:09:36.412Z,317.00
2019-01-21T01:10:36.407Z,316.50
2019-01-21T01:11:36.397Z,316.51
2019-01-21T01:12:36.378Z,316.24
2019-01-21T01:13:36.387Z,316.20
2019-01-21T01:14:36.351Z,316.34
2019-01-21T01:15:36.386Z,316.43
2019-01-21T01:16:36.334Z,316.42
2019-01-21T01:17:37.263Z,315.79
2019-01-21T01:18:36.315Z,315.73
2019-01-21T01:19:36.321Z,315.90
2019-01-21T01:20:36.336Z,315.79
2019-01-21T01:21:36.282Z,316.14
2019-01-21T01:22:36.270Z,316.07
2019-01-21T01:23:36.258Z,315.35
2019-01-21T01:24:36.249Z,315.18
2019-01-21T01:25:36.245Z,315.40
2019-01-21T01:26:36.218Z,315.55
2019-01-21T01:27:36.211Z,315.62
2019-01-21T01:28:36.199Z,315.58
2019-01-21T01:29:36.204Z,315.21
2019-01-21T01:30:36.219Z,315.26
2019-01-21T01:31:36.172Z,315.41
2019-01-21T01:32:36.158Z,315.83
2019-01-21T01:33:36.146Z,314.99
2019-01-21T01:34:36.137Z,315.39
2019-01-21T01:35:36.129Z,315.35
2019-01-21T01:36:36.147Z,315.41
2019-01-21T01:37:36.099Z,315.37
2019-01-21T01:38:36.094Z,315.75
2019-01-21T01:39:36.085Z,315.28
2019-01-21T01:40:36.071Z,314.95
2019-01-21T01:41:36.087Z,315.17
2019-01-21T01:42:36.062Z,315.47
2019-01-21T01:43:36.058Z,314.96
2019-01-21T01:44:36.035Z,315.02
2019-01-21T01:45:36.015Z,315.17
2019-01-21T01:46:36.041Z,314.84
2019-01-21T01:47:36.005Z,315.33
2019-01-21T01:48:35.981Z,315.31
2019-01-21T01:49:35.986Z,315.26
2019-01-21T01:50:35.969Z,315.06
2019-01-21T01:51:35.953Z,315.35
2019-01-21T01:52:35.959Z,315.15
2019-01-21T01:53:35.943Z,315.23
2019-01-21T01:54:35.950Z,314.82
2019-01-21T01:55:35.923Z,315.07
2019-01-21T01:56:35.908Z,315.22
2019-01-21T01:57:35.885Z,315.28
2019-01-21T01:58:35.885Z,315.14
2019-01-21T01:59:35.904Z,315.10
2019-01-21T02:00:35.853Z,315.26
2019-01-21T02:01:35.848Z,314.81
2019-01-21T02:02:35.885Z,315.16
2019-01-21T02:03:35.826Z,315.07
2019-01-21T02:04:35.830Z,314.99
2019-01-21T02:05:35.802Z,314.72
2019-01-21T02:06:35.806Z,315.22
2019-01-21T02:07:35.795Z,315.32
2019-01-21T02:08:35.815Z,315.73
2019-01-21T02:09:35.773Z,315.65
2019-01-21T02:10:35.750Z,315.73
2019-01-21T02:11:35.738Z,315.26
2019-01-21T02:12:35.730Z,315.06
2019-01-21T02:13:35.724Z,315.18
2019-01-21T02:14:35.751Z,314.96
2019-01-21T02:15:35.704Z,315.14
2019-01-21T02:16:35.688Z,314.98
2019-01-21T02:17:35.677Z,314.75
2019-01-21T02:18:35.671Z,314.65
2019-01-21T02:19:35.654Z,314.92
2019-01-21T02:20:35.676Z,315.07
2019-01-21T02:21:35.639Z,314.92
2019-01-21T02:22:35.635Z,314.97
2019-01-21T02:23:35.610Z,315.19
2019-01-21T02:24:35.602Z,315.15
2019-01-21T02:25:35.598Z,314.95
2019-01-21T02:26:35.608Z,315.09
2019-01-21T02:27:35.574Z,314.91
2019-01-21T02:28:35.565Z,314.62
2019-01-21T02:29:35.557Z,315.01
2019-01-21T02:30:35.532Z,315.00
2019-01-21T02:31:35.553Z,315.01
2019-01-21T02:32:35.522Z,314.85
2019-01-21T02:33:35.516Z,315.33
2019-01-21T02:34:35.501Z,315.18
2019-01-21T02:35:35.494Z,314.94
2019-01-21T02:36:35.518Z,314.97
2019-01-21T02:37:35.463Z,314.63
2019-01-21T02:38:35.450Z,314.84
2019-01-21T02:39:35.455Z,314.62
2019-01-21T02:40:35.441Z,315.02
2019-01-21T02:41:35.433Z,314.99
2019-01-21T02:42:35.486Z,315.44
2019-01-21T02:43:35.392Z,314.89
2019-01-21T02:44:35.385Z,315.33
2019-01-21T02:45:35.391Z,314.89
2019-01-21T02:46:35.372Z,315.00
2019-01-21T02:47:35.396Z,314.93
2019-01-21T02:48:35.351Z,314.96
2019-01-21T02:49:35.322Z,315.30
2019-01-21T02:50:35.322Z,314.82
2019-01-21T02:51:35.320Z,315.07
2019-01-21T02:52:35.305Z,314.71
2019-01-21T02:53:35.339Z,314.84
2019-01-21T02:54:35.285Z,314.89
2019-01-21T02:55:35.266Z,314.81
2019-01-21T02:56:35.263Z,315.00
2019-01-21T02:57:35.262Z,314.87
2019-01-21T02:58:35.261Z,315.18
2019-01-21T02:59:35.264Z,315.04
2019-01-21T03:00:35.225Z,314.75
2019-01-21T03:01:35.214Z,314.92
2019-01-21T03:02:35.194Z,314.51
2019-01-21T03:03:35.179Z,314.88
2019-01-21T03:04:35.207Z,315.04
2019-01-21T03:05:35.171Z,314.92
2019-01-21T03:06:35.161Z,315.03
2019-01-21T03:07:35.152Z,315.05
2019-01-21T03:08:35.142Z,315.04
2019-01-21T03:09:35.124Z,315.00
2019-01-21T03:10:35.127Z,314.85
2019-01-21T03:11:35.106Z,314.67
2019-01-21T03:12:35.096Z,314.63
2019-01-21T03:13:35.078Z,314.65
2019-01-21T03:14:35.074Z,314.56
2019-01-21T03:15:35.074Z,314.28
2019-01-21T03:16:35.058Z,314.15
2019-01-21T03:17:35.040Z,314.41
2019-01-21T03:18:35.034Z,314.81
2019-01-21T03:19:35.023Z,314.97
2019-01-21T03:20:35.029Z,314.74
2019-01-21T03:21:34.995Z,314.97
2019-01-21T03:22:35.000Z,314.80
2019-01-21T03:23:34.963Z,314.85
2019-01-21T03:24:34.960Z,314.74
2019-01-21T03:25:34.961Z,314.75
2019-01-21T03:26:34.947Z,314.49
2019-01-21T03:27:34.936Z,314.13
2019-01-21T03:28:34.947Z,314.35
2019-01-21T03:29:34.912Z,314.20
2019-01-21T03:30:34.905Z,315.09
2019-01-21T03:31:34.892Z,315.19
2019-01-21T03:32:34.895Z,314.41
2019-01-21T03:33:34.870Z,314.82
2019-01-21T03:34:34.916Z,314.74
2019-01-21T03:35:34.844Z,314.64
2019-01-21T03:36:34.831Z,314.65
2019-01-21T03:37:34.826Z,314.63
2019-01-21T03:38:34.822Z,314.46
2019-01-21T03:39:34.807Z,314.95
2019-01-21T03:40:34.810Z,314.64
2019-01-21T03:41:34.771Z,315.17
2019-01-21T03:42:34.788Z,314.64
2019-01-21T03:43:34.757Z,314.22
2019-01-21T03:44:34.767Z,314.66
2019-01-21T03:45:34.738Z,314.95
2019-01-21T03:46:34.741Z,314.84
2019-01-21T03:47:34.715Z,314.52
2019-01-21T03:48:34.723Z,314.85
2019-01-21T03:49:34.702Z,315.15
2019-01-21T03:50:34.704Z,314.66
2019-01-21T03:51:34.681Z,314.41
2019-01-21T03:52:34.678Z,314.35
2019-01-21T03:53:34.667Z,314.34
2019-01-21T03:54:34.652Z,314.07
2019-01-21T03:55:34.627Z,314.35
2019-01-21T03:56:34.624Z,314.65
2019-01-21T03:57:34.613Z,314.60
2019-01-21T03:58:34.631Z,314.59
2019-01-21T03:59:34.584Z,315.27
2019-01-21T04:00:34.573Z,315.77
2019-01-21T04:01:34.574Z,314.13
2019-01-21T04:02:34.569Z,314.22
2019-01-21T04:03:34.550Z,314.33
2019-01-21T04:04:34.571Z,313.99
2019-01-21T04:05:34.522Z,313.88
2019-01-21T04:06:34.521Z,313.78
2019-01-21T04:07:34.494Z,314.56
2019-01-21T04:08:34.493Z,314.33
2019-01-21T04:09:34.489Z,314.40
2019-01-21T04:10:34.502Z,314.42
2019-01-21T04:11:34.461Z,314.45
2019-01-21T04:12:34.444Z,314.65
2019-01-21T04:13:34.437Z,314.27
2019-01-21T04:14:34.419Z,314.54
2019-01-21T04:15:34.435Z,314.38
2019-01-21T04:16:34.406Z,314.37
2019-01-21T04:17:34.387Z,314.50
2019-01-21T04:18:34.372Z,314.06
2019-01-21T04:19:34.383Z,313.95
2019-01-21T04:20:34.393Z,314.63
2019-01-21T04:21:34.367Z,314.62
2019-01-21T04:22:34.347Z,314.58
2019-01-21T04:23:34.334Z,314.45
2019-01-21T04:24:34.327Z,314.63
2019-01-21T04:25:34.310Z,314.60
2019-01-21T04:26:34.335Z,314.69
2019-01-21T04:27:34.290Z,314.59
2019-01-21T04:28:34.272Z,314.58
2019-01-21T04:29:34.278Z,314.60
2019-01-21T04:30:34.267Z,314.76
2019-01-21T04:31:34.246Z,314.98
2019-01-21T04:32:34.252Z,314.96
2019-01-21T04:33:34.232Z,314.82
2019-01-21T04:34:34.217Z,315.69
2019-01-21T04:35:34.215Z,314.94
2019-01-21T04:36:34.626Z,315.31
2019-01-21T04:37:34.490Z,315.49
2019-01-21T04:38:34.166Z,315.71
2019-01-21T04:39:34.159Z,315.34
2019-01-21T04:40:34.145Z,315.85
2019-01-21T04:41:34.154Z,315.13
2019-01-21T04:42:34.132Z,315.10
2019-01-21T04:43:34.141Z,315.95
2019-01-21T04:44:34.113Z,315.07
2019-01-21T04:45:34.091Z,314.90
2019-01-21T04:46:34.082Z,315.02
2019-01-21T04:47:34.090Z,315.13
2019-01-21T04:48:34.099Z,315.31
2019-01-21T04:49:34.045Z,315.35
2019-01-21T04:50:34.033Z,315.09
2019-01-21T04:51:34.022Z,315.26
2019-01-21T04:52:34.011Z,315.18
2019-01-21T04:53:34.019Z,315.27
2019-01-21T04:54:34.027Z,314.77
2019-01-21T04:55:33.996Z,314.84
2019-01-21T04:56:33.979Z,314.21
2019-01-21T04:57:33.960Z,314.52
2019-01-21T04:58:33.975Z,314.77
2019-01-21T04:59:33.957Z,315.02
2019-01-21T05:00:33.932Z,314.97
2019-01-21T05:01:33.936Z,315.20
2019-01-21T05:02:33.922Z,314.83
2019-01-21T05:03:33.895Z,315.20
2019-01-21T05:04:33.920Z,314.87
2019-01-21T05:05:33.885Z,315.08
2019-01-21T05:06:33.879Z,314.94
2019-01-21T05:07:33.863Z,315.57
2019-01-21T05:08:33.877Z,316.20
2019-01-21T05:09:33.830Z,316.12
2019-01-21T05:10:33.849Z,316.34
2019-01-21T05:11:33.812Z,316.51
2019-01-21T05:12:33.816Z,316.21
2019-01-21T05:13:33.803Z,316.16
2019-01-21T05:14:33.805Z,316.00
2019-01-21T05:15:33.774Z,315.67
2019-01-21T05:16:33.776Z,315.77
2019-01-21T05:17:33.772Z,315.86
2019-01-21T05:18:40.958Z,315.85
2019-01-21T05:19:34.727Z,315.78
2019-01-21T05:20:33.724Z,316.33
2019-01-21T05:21:33.730Z,316.17
2019-01-21T05:22:33.694Z,316.67
2019-01-21T05:23:33.689Z,315.93
2019-01-21T05:24:33.683Z,316.21
2019-01-21T05:25:33.694Z,316.53
2019-01-21T05:26:33.669Z,316.35
2019-01-21T05:27:33.671Z,316.16
2019-01-21T05:28:33.643Z,315.82
2019-01-21T05:29:33.619Z,315.81
2019-01-21T05:30:33.629Z,316.24
2019-01-21T05:31:33.599Z,315.95
2019-01-21T05:32:33.591Z,315.83
2019-01-21T05:33:33.613Z,315.74
2019-01-21T05:34:33.587Z,315.81
2019-01-21T05:35:33.554Z,316.08
2019-01-21T05:36:33.544Z,317.31
2019-01-21T05:37:33.541Z,316.74
2019-01-21T05:38:33.562Z,316.94
2019-01-21T05:39:33.525Z,316.60
2019-01-21T05:40:33.519Z,316.96
2019-01-21T05:41:33.531Z,319.34
2019-01-21T05:42:33.479Z,317.34
2019-01-21T05:43:33.482Z,318.83
2019-01-21T05:44:33.486Z,317.94
2019-01-21T05:45:33.462Z,317.37
2019-01-21T05:46:33.438Z,316.77
2019-01-21T05:47:33.433Z,317.86
2019-01-21T05:48:33.415Z,316.86
2019-01-21T05:49:33.448Z,317.30
2019-01-21T05:50:33.403Z,317.35
2019-01-21T05:51:33.399Z,316.78
2019-01-21T05:52:33.384Z,315.49
2019-01-21T05:53:33.375Z,316.24
2019-01-21T05:54:33.352Z,316.01
2019-01-21T05:55:33.363Z,316.24
2019-01-21T05:56:33.330Z,316.02
2019-01-21T05:57:33.317Z,316.01
2019-01-21T05:58:33.316Z,315.87
2019-01-21T05:59:33.351Z,315.35
2019-01-21T06:00:33.326Z,315.43
2019-01-21T06:01:33.271Z,315.64
2019-01-21T06:02:34.242Z,316.10
2019-01-21T06:03:33.263Z,316.24
2019-01-21T06:04:33.260Z,316.16
2019-01-21T06:05:33.249Z,316.06
2019-01-21T06:06:33.247Z,315.89
2019-01-21T06:07:33.212Z,316.20
2019-01-21T06:08:33.203Z,315.86
2019-01-21T06:09:33.542Z,316.05
2019-01-21T06:10:33.191Z,316.02
2019-01-21T06:11:33.186Z,316.26
2019-01-21T06:12:33.206Z,315.49
2019-01-21T06:13:33.162Z,315.91
2019-01-21T06:14:33.136Z,316.02
2019-01-21T06:15:33.128Z,315.70
2019-01-21T06:16:33.160Z,315.63
2019-01-21T06:17:33.117Z,315.93
2019-01-21T06:18:33.114Z,316.52
2019-01-21T06:19:33.107Z,315.85
2019-01-21T06:20:33.079Z,316.08
2019-01-21T06:21:33.065Z,316.06
2019-01-21T06:22:33.063Z,316.20
2019-01-21T06:23:33.077Z,316.19
2019-01-21T06:24:33.043Z,316.09
2019-01-21T06:25:33.050Z,316.08
2019-01-21T06:26:33.016Z,315.79
2019-01-21T06:27:32.999Z,316.30
2019-01-21T06:28:33.032Z,316.97
2019-01-21T06:29:32.997Z,316.23
2019-01-21T06:30:32.990Z,316.79
2019-01-21T06:31:32.972Z,316.02
2019-01-21T06:32:32.946Z,316.00
2019-01-21T06:33:32.937Z,317.44
2019-01-21T06:34:32.972Z,316.94
2019-01-21T06:35:32.923Z,316.35
2019-01-21T06:36:32.919Z,316.27
2019-01-21T06:37:32.901Z,316.22
2019-01-21T06:38:32.888Z,316.21
2019-01-21T06:39:32.877Z,316.16
2019-01-21T06:40:32.892Z,316.57
2019-01-21T06:41:32.846Z,316.84
2019-01-21T06:42:32.849Z,317.11
2019-01-21T06:43:32.838Z,316.67
2019-01-21T06:44:32.848Z,317.19
2019-01-21T06:45:32.823Z,317.00
2019-01-21T06:46:32.815Z,316.98
2019-01-21T06:47:32.805Z,316.96
2019-01-21T06:48:32.786Z,317.38
2019-01-21T06:49:32.795Z,317.09
2019-01-21T06:50:32.752Z,317.57
2019-01-21T06:51:32.776Z,317.19
2019-01-21T06:52:32.732Z,317.29
2019-01-21T06:53:32.724Z,317.32
2019-01-21T06:54:32.724Z,316.77
2019-01-21T06:55:32.711Z,317.33
2019-01-21T06:56:32.701Z,316.99
2019-01-21T06:57:32.720Z,317.74
2019-01-21T06:58:32.680Z,318.83
2019-01-21T06:59:32.658Z,318.18
2019-01-21T07:00:32.651Z,317.36
2019-01-21T07:01:33.349Z,317.07
2019-01-21T07:02:32.652Z,317.44
2019-01-21T07:03:32.645Z,317.26
2019-01-21T07:04:32.621Z,317.46
2019-01-21T07:05:32.635Z,317.53
2019-01-21T07:06:32.612Z,317.65
2019-01-21T07:07:32.611Z,317.83
2019-01-21T07:08:32.598Z,317.55
2019-01-21T07:09:32.568Z,317.79
2019-01-21T07:10:32.547Z,317.46
2019-01-21T07:11:32.541Z,317.11
2019-01-21T07:12:32.521Z,316.98
2019-01-21T07:13:32.537Z,317.04
2019-01-21T07:14:32.506Z,317.19
2019-01-21T07:15:32.501Z,316.93
2019-01-21T07:16:32.490Z,317.50
2019-01-21T07:17:32.513Z,317.20
2019-01-21T07:18:32.483Z,316.76
2019-01-21T07:19:32.441Z,316.84
2019-01-21T07:20:32.446Z,316.85
2019-01-21T07:21:32.437Z,317.22
2019-01-21T07:22:32.413Z,317.33
2019-01-21T07:23:32.401Z,317.55
2019-01-21T07:24:32.414Z,317.50
2019-01-21T07:25:32.377Z,317.33
2019-01-21T07:26:32.380Z,317.48
2019-01-21T07:27:32.375Z,317.39
2019-01-21T07:28:32.356Z,317.42
2019-01-21T07:29:32.789Z,317.19
2019-01-21T07:30:32.352Z,317.43
2019-01-21T07:31:32.315Z,316.77
2019-01-21T07:32:32.304Z,317.17
2019-01-21T07:33:32.307Z,317.33
2019-01-21T07:34:32.335Z,317.06
2019-01-21T07:35:32.291Z,316.65
2019-01-21T07:36:32.290Z,316.42
2019-01-21T07:37:32.259Z,316.51
2019-01-21T07:38:32.245Z,317.25
2019-01-21T07:39:33.881Z,316.96
2019-01-21T07:40:32.250Z,316.71
2019-01-21T07:41:32.229Z,316.69
2019-01-21T07:42:32.231Z,316.71
2019-01-21T07:43:32.189Z,317.15
2019-01-21T07:44:32.180Z,316.96
2019-01-21T07:45:32.166Z,316.54
2019-01-21T07:46:32.168Z,316.48
2019-01-21T07:47:32.174Z,316.52
2019-01-21T07:48:32.146Z,316.64
2019-01-21T07:49:32.133Z,316.34
2019-01-21T07:50:32.132Z,316.65
2019-01-21T07:51:32.135Z,316.31
2019-01-21T07:52:32.099Z,317.47
2019-01-21T07:53:32.093Z,317.04
2019-01-21T07:54:32.070Z,317.35
2019-01-21T07:55:32.061Z,317.28
2019-01-21T07:56:32.057Z,317.60
2019-01-21T07:57:32.076Z,317.40
2019-01-21T07:58:32.035Z,316.88
2019-01-21T07:59:32.028Z,316.84
2019-01-21T08:00:32.018Z,317.24
2019-01-21T08:01:32.006Z,316.88
2019-01-21T08:02:31.984Z,316.41
2019-01-21T08:03:31.992Z,317.12
2019-01-21T08:04:31.969Z,316.69
2019-01-21T08:05:31.963Z,316.41
2019-01-21T08:06:31.953Z,316.03
2019-01-21T08:07:31.938Z,316.16
2019-01-21T08:08:31.949Z,315.49
2019-01-21T08:09:31.925Z,316.55
2019-01-21T08:10:31.904Z,315.99
2019-01-21T08:11:31.906Z,316.37
2019-01-21T08:12:31.887Z,316.07
2019-01-21T08:13:31.902Z,316.17
2019-01-21T08:14:31.852Z,316.59
2019-01-21T08:15:31.862Z,316.35
2019-01-21T08:16:31.873Z,316.20
2019-01-21T08:17:31.904Z,316.53
2019-01-21T08:18:31.823Z,316.19
2019-01-21T08:19:31.831Z,316.34
2019-01-21T08:20:31.850Z,316.04
2019-01-21T08:21:31.801Z,316.39
2019-01-21T08:22:31.770Z,316.63
2019-01-21T08:23:31.762Z,315.71
2019-01-21T08:24:31.756Z,315.89
2019-01-21T08:25:31.747Z,315.93
2019-01-21T08:26:31.747Z,316.21
2019-01-21T08:27:31.714Z,315.65
2019-01-21T08:28:31.706Z,316.11
2019-01-21T08:29:31.690Z,316.41
2019-01-21T08:30:31.731Z,315.88
2019-01-21T08:31:31.707Z,316.21
2019-01-21T08:32:31.671Z,315.65
2019-01-21T08:33:31.661Z,315.75
2019-01-21T08:34:31.644Z,315.78
2019-01-21T08:35:31.630Z,316.02
2019-01-21T08:36:32.262Z,316.02
2019-01-21T08:37:31.611Z,315.85
2019-01-21T08:38:31.609Z,315.94
2019-01-21T08:39:31.601Z,316.51
2019-01-21T08:40:31.597Z,316.04
2019-01-21T08:41:31.566Z,316.04
2019-01-21T08:42:31.578Z,315.92
2019-01-21T08:43:31.551Z,315.99
2019-01-21T08:44:31.543Z,316.11
2019-01-21T08:45:31.537Z,316.27
2019-01-21T08:46:31.522Z,316.30
2019-01-21T08:47:31.517Z,317.73
2019-01-21T08:48:31.491Z,316.68
2019-01-21T08:49:31.486Z,316.70
2019-01-21T08:50:31.492Z,315.77
2019-01-21T08:51:31.466Z,315.52
2019-01-21T08:52:31.482Z,315.74
2019-01-21T08:53:31.637Z,315.73
2019-01-21T08:54:31.429Z,315.97
2019-01-21T08:55:31.418Z,315.85
2019-01-21T08:56:31.427Z,315.75
2019-01-21T08:57:31.426Z,315.42
2019-01-21T08:58:31.379Z,315.28
2019-01-21T08:59:31.368Z,315.60
2019-01-21T09:00:31.367Z,315.49
2019-01-21T09:01:31.348Z,315.49
2019-01-21T09:02:31.363Z,315.33
2019-01-21T09:03:31.370Z,315.44
2019-01-21T09:04:31.333Z,315.41
2019-01-21T09:05:31.321Z,315.90
2019-01-21T09:06:31.308Z,315.48
2019-01-21T09:07:31.285Z,315.11
2019-01-21T09:08:37.442Z,315.27
2019-01-21T09:09:32.293Z,315.97
2019-01-21T09:10:31.271Z,315.23
2019-01-21T09:11:31.252Z,315.62
2019-01-21T09:12:31.235Z,315.24
2019-01-21T09:13:31.252Z,314.89
2019-01-21T09:14:31.219Z,314.89
2019-01-21T09:15:31.215Z,314.91
2019-01-21T09:16:31.197Z,315.87
2019-01-21T09:17:31.191Z,316.12
2019-01-21T09:18:31.168Z,315.86
2019-01-21T09:19:37.079Z,316.15
2019-01-21T09:20:32.169Z,315.83
2019-01-21T09:21:31.135Z,315.30
2019-01-21T09:22:31.135Z,315.25
2019-01-21T09:23:31.127Z,315.21
2019-01-21T09:24:31.147Z,315.87
2019-01-21T09:25:31.111Z,316.38
2019-01-21T09:26:31.083Z,316.35
2019-01-21T09:27:31.077Z,316.39
2019-01-21T09:28:31.073Z,316.06
2019-01-21T09:29:31.071Z,315.61
2019-01-21T09:30:31.073Z,316.08
2019-01-21T09:31:31.040Z,315.53
2019-01-21T09:32:31.026Z,316.08
2019-01-21T09:33:31.018Z,315.75
2019-01-21T09:34:31.013Z,316.00
2019-01-21T09:35:31.007Z,315.88
2019-01-21T09:36:31.016Z,315.77
2019-01-21T09:37:30.987Z,316.23
2019-01-21T09:38:30.958Z,315.49
2019-01-21T09:39:31.018Z,315.38
2019-01-21T09:40:30.959Z,315.11
2019-01-21T09:41:30.925Z,315.06
2019-01-21T09:42:30.952Z,315.37
2019-01-21T09:43:30.922Z,315.24
2019-01-21T09:44:30.893Z,314.79
2019-01-21T09:45:30.876Z,314.98
2019-01-21T09:46:30.910Z,314.81
2019-01-21T09:47:30.895Z,314.90
2019-01-21T09:48:30.874Z,314.96
2019-01-21T09:49:30.863Z,314.82
2019-01-21T09:50:30.833Z,314.86
2019-01-21T09:51:30.816Z,315.36
2019-01-21T09:52:30.850Z,315.76
2019-01-21T09:53:30.841Z,316.29
2019-01-21T09:54:30.799Z,315.88
2019-01-21T09:55:30.796Z,315.58
2019-01-21T09:56:30.778Z,315.85
2019-01-21T09:57:30.758Z,315.58
2019-01-21T09:58:30.760Z,315.45
2019-01-21T09:59:30.750Z,315.12
2019-01-21T10:00:30.731Z,315.29
2019-01-21T10:01:30.720Z,315.50
2019-01-21T10:02:30.734Z,315.93
2019-01-21T10:03:30.692Z,316.19
2019-01-21T10:04:30.684Z,316.33
2019-01-21T10:05:30.669Z,316.47
2019-01-21T10:06:30.673Z,316.59
2019-01-21T10:07:30.665Z,316.51
2019-01-21T10:08:30.675Z,316.52
2019-01-21T10:09:30.633Z,316.08
2019-01-21T10:10:30.616Z,315.32
2019-01-21T10:11:30.604Z,315.19
2019-01-21T10:12:30.597Z,314.99
2019-01-21T10:13:30.620Z,314.95
2019-01-21T10:14:30.585Z,314.76
2019-01-21T10:15:30.578Z,315.13
2019-01-21T10:16:30.560Z,314.86
2019-01-21T10:17:30.538Z,314.50
2019-01-21T10:18:30.543Z,313.86
2019-01-21T10:19:30.545Z,314.26
2019-01-21T10:20:30.525Z,315.11
2019-01-21T10:21:30.505Z,314.85
2019-01-21T10:22:30.490Z,313.87
2019-01-21T10:23:30.473Z,314.07
2019-01-21T10:24:30.489Z,314.38
2019-01-21T10:25:30.461Z,314.56
2019-01-21T10:26:30.488Z,314.08
2019-01-21T10:27:30.445Z,314.18
2019-01-21T10:28:30.434Z,314.09
2019-01-21T10:29:30.459Z,314.45
2019-01-21T10:30:30.407Z,313.80
2019-01-21T10:31:30.401Z,313.82
2019-01-21T10:32:30.390Z,314.11
2019-01-21T10:33:30.383Z,313.62
2019-01-21T10:34:30.382Z,314.05
2019-01-21T10:35:30.374Z,313.98
2019-01-21T10:36:30.353Z,314.28
2019-01-21T10:37:30.329Z,313.97
2019-01-21T10:38:30.333Z,313.83
2019-01-21T10:39:30.317Z,314.03
2019-01-21T10:40:30.318Z,314.75
2019-01-21T10:41:30.313Z,314.51
2019-01-21T10:42:30.294Z,314.75
2019-01-21T10:43:30.269Z,315.08
2019-01-21T10:44:30.274Z,314.07
2019-01-21T10:45:30.244Z,314.42
2019-01-21T10:46:30.263Z,314.24
2019-01-21T10:47:30.240Z,314.50
2019-01-21T10:48:30.201Z,314.66
2019-01-21T10:49:30.204Z,314.40
2019-01-21T10:50:30.193Z,315.23
2019-01-21T10:51:30.188Z,314.28
2019-01-21T10:52:30.205Z,314.41
2019-01-21T10:53:30.168Z,314.95
2019-01-21T10:54:30.141Z,314.35
2019-01-21T10:55:30.149Z,313.99
2019-01-21T10:56:30.119Z,313.76
2019-01-21T10:57:30.149Z,313.99
2019-01-21T10:58:30.107Z,314.16
2019-01-21T10:59:30.106Z,313.86
2019-01-21T11:00:30.110Z,313.82
2019-01-21T11:01:30.083Z,313.96
2019-01-21T11:02:30.084Z,314.46
2019-01-21T11:03:30.064Z,314.53
2019-01-21T11:04:30.046Z,314.17
2019-01-21T11:05:30.049Z,314.44
2019-01-21T11:06:30.016Z,314.38
2019-01-21T11:07:30.012Z,313.60
2019-01-21T11:08:30.054Z,314.51
2019-01-21T11:09:29.978Z,315.90
2019-01-21T11:10:29.983Z,314.37
2019-01-21T11:11:29.976Z,314.10
2019-01-21T11:12:29.964Z,315.35
2019-01-21T11:13:29.947Z,315.15
2019-01-21T11:14:29.957Z,314.80
2019-01-21T11:15:29.917Z,314.26
2019-01-21T11:16:29.906Z,314.24
2019-01-21T11:17:29.909Z,313.81
2019-01-21T11:18:29.902Z,314.15
2019-01-21T11:19:29.923Z,314.40
2019-01-21T11:20:29.874Z,314.50
2019-01-21T11:21:29.854Z,314.32
2019-01-21T11:22:29.850Z,314.60
2019-01-21T11:23:29.848Z,314.82
2019-01-21T11:24:29.832Z,314.22
2019-01-21T11:25:29.841Z,314.36
2019-01-21T11:26:29.807Z,314.02
2019-01-21T11:27:29.800Z,313.81
2019-01-21T11:28:29.776Z,314.22
2019-01-21T11:29:29.779Z,313.98
2019-01-21T11:30:29.765Z,313.83
2019-01-21T11:31:29.780Z,313.82
2019-01-21T11:32:29.739Z,313.91
2019-01-21T11:33:29.730Z,314.25
2019-01-21T11:34:29.715Z,314.22
2019-01-21T11:35:29.700Z,314.39
2019-01-21T11:36:29.699Z,314.02
2019-01-21T11:37:29.719Z,314.27
2019-01-21T11:38:29.711Z,313.89
2019-01-21T11:39:29.656Z,313.61
2019-01-21T11:40:29.653Z,313.67
2019-01-21T11:41:29.648Z,313.66
2019-01-21T11:42:29.661Z,313.95
2019-01-21T11:43:29.640Z,313.63
2019-01-21T11:44:29.613Z,314.10
2019-01-21T11:45:29.634Z,314.30
2019-01-21T11:46:29.591Z,314.07
2019-01-21T11:47:29.592Z,314.67
2019-01-21T11:48:29.581Z,314.73
2019-01-21T11:49:29.550Z,314.53
2019-01-21T11:50:29.545Z,314.70
2019-01-21T11:51:29.542Z,315.01
2019-01-21T11:52:29.531Z,314.70
2019-01-21T11:53:29.530Z,315.19
2019-01-21T11:54:29.506Z,314.75
2019-01-21T11:55:29.498Z,315.58
2019-01-21T11:56:29.483Z,315.02
2019-01-21T11:57:29.467Z,314.93
2019-01-21T11:58:29.483Z,314.70
2019-01-21T11:59:29.444Z,314.97
2019-01-21T12:00:29.430Z,315.46
2019-01-21T12:01:29.421Z,315.08
2019-01-21T12:02:29.425Z,315.03
2019-01-21T12:03:29.406Z,314.92
2019-01-21T12:04:29.472Z,314.60
2019-01-21T12:05:29.387Z,314.73
2019-01-21T12:06:29.367Z,314.48
2019-01-21T12:07:29.364Z,314.61
2019-01-21T12:08:29.367Z,314.15
2019-01-21T12:09:29.373Z,313.93
2019-01-21T12:10:29.329Z,314.11
2019-01-21T12:11:29.322Z,314.10
2019-01-21T12:12:29.328Z,313.28
2019-01-21T12:13:29.287Z,313.72
2019-01-21T12:14:29.305Z,314.15
2019-01-21T12:15:29.282Z,314.14
2019-01-21T12:16:29.298Z,314.42
2019-01-21T12:17:29.292Z,312.90
2019-01-21T12:18:29.233Z,313.84
2019-01-21T12:19:29.224Z,313.96
2019-01-21T12:20:29.211Z,313.55
2019-01-21T12:21:29.207Z,313.54
2019-01-21T12:22:29.200Z,313.40
2019-01-21T12:23:29.208Z,313.03
2019-01-21T12:24:29.166Z,313.60
2019-01-21T12:25:29.175Z,313.16
2019-01-21T12:26:29.185Z,313.60
2019-01-21T12:27:29.154Z,313.71
2019-01-21T12:28:29.166Z,313.17